Time;durP1;ratioP1;P1;durP2;ratioP2;P2;SDS_P1;SDS_P2;PMS_P1;PMS_P2;Temp;Humidity;BMP_temperature;BMP_pressure;BME280_temperature;BME280_humidity;BME280_pressure;Samples;Min_cycle;Max_cycle;Signal;HPM_P1;HPM_P2
2022/07/27 00:02:17;;;;;;;2.40;2.20;;;;;;;21.97;51.03;98812.41;5091312;28;40447;-80
2022/07/27 00:04:44;;;;;;;2.60;2.40;;;;;;;21.91;51.06;98822.00;5108621;28;41636;-82
2022/07/27 00:07:13;;;;;;;2.63;2.43;;;;;;;21.87;51.17;98826.09;5091224;28;43196;-78
2022/07/27 00:09:41;;;;;;;2.97;2.43;;;;;;;21.82;50.98;98829.25;5091475;28;39865;-80
2022/07/27 00:12:09;;;;;;;2.27;2.07;;;;;;;21.79;51.12;98834.16;5125482;27;41657;-79
2022/07/27 00:14:36;;;;;;;2.87;2.67;;;;;;;21.73;51.08;98829.44;5075005;28;42932;-80
2022/07/27 00:17:04;;;;;;;2.87;2.57;;;;;;;21.67;51.33;98825.53;5090907;28;41181;-80
2022/07/27 00:19:32;;;;;;;2.40;2.20;;;;;;;21.59;51.43;98817.47;5091399;28;39632;-78
2022/07/27 00:21:59;;;;;;;2.70;2.50;;;;;;;21.56;51.91;98831.25;5107697;28;41474;-80
2022/07/27 00:24:28;;;;;;;2.50;2.30;;;;;;;21.52;52.09;98832.59;5108245;28;41740;-79
2022/07/27 00:26:56;;;;;;;2.20;2.00;;;;;;;21.48;52.08;98833.94;5074011;28;42233;-79
2022/07/27 00:29:24;;;;;;;2.50;2.30;;;;;;;21.42;52.67;98826.50;5091650;28;39638;-80
2022/07/27 00:31:51;;;;;;;2.03;1.93;;;;;;;21.40;52.17;98833.91;5108013;28;41705;-79
2022/07/27 00:34:19;;;;;;;2.13;1.93;;;;;;;21.36;52.57;98838.81;5092885;28;42946;-78
2022/07/27 00:36:47;;;;;;;2.20;2.00;;;;;;;21.34;52.51;98839.97;5073612;28;41936;-78
2022/07/27 00:39:14;;;;;;;2.77;2.17;;;;;;;21.32;52.58;98836.59;5091132;28;38978;-78
2022/07/27 00:41:43;;;;;;;2.17;1.97;;;;;;;21.17;52.49;98822.88;5073755;28;41051;-79
2022/07/27 00:44:11;;;;;;;2.30;2.20;;;;;;;21.25;52.50;98836.41;5091037;28;41816;-81
2022/07/27 00:46:39;;;;;;;3.43;1.90;;;;;;;21.17;52.78;98818.34;5090812;28;42615;-80
2022/07/27 00:49:07;;;;;;;2.30;2.20;;;;;;;21.26;53.57;98842.66;5091024;28;40715;-78
2022/07/27 00:51:34;;;;;;;1.93;1.83;;;;;;;21.33;53.09;98846.38;5091685;28;42673;-79
2022/07/27 00:54:02;;;;;;;2.23;1.93;;;;;;;21.39;52.90;98848.38;5111068;28;41429;-79
2022/07/27 00:56:30;;;;;;;2.03;1.93;;;;;;;21.41;52.67;98844.53;5095397;28;42261;-79
2022/07/27 00:58:59;;;;;;;1.97;1.70;;;;;;;21.46;53.27;98838.66;5077704;28;39206;-78
2022/07/27 01:01:27;;;;;;;1.90;1.80;;;;;;;21.44;53.53;98846.91;5089264;28;41838;-79
2022/07/27 01:03:55;;;;;;;3.57;2.03;;;;;;;21.37;53.06;98823.50;5127819;27;43881;-78
2022/07/27 01:06:23;;;;;;;1.80;1.70;;;;;;;21.47;52.76;98837.66;5077010;28;41533;-78
2022/07/27 01:08:51;;;;;;;2.20;2.10;;;;;;;21.46;52.68;98844.03;5076944;28;39067;-80
2022/07/27 01:11:19;;;;;;;1.90;1.80;;;;;;;21.49;52.48;98849.97;5090301;28;41839;-81
2022/07/27 01:13:47;;;;;;;1.90;1.80;;;;;;;21.49;53.04;98844.56;5076297;28;44261;-79
2022/07/27 01:16:17;;;;;;;1.90;1.80;;;;;;;21.49;52.77;98843.72;5094240;28;42329;-81
2022/07/27 01:18:44;;;;;;;1.90;1.80;;;;;;;21.42;53.25;98835.44;5077188;28;38891;-77
2022/07/27 01:21:12;;;;;;;2.17;1.63;;;;;;;21.38;53.44;98833.25;5093100;28;41215;-79
2022/07/27 01:23:41;;;;;;;1.90;1.80;;;;;;;21.33;53.79;98838.28;5093872;28;42771;-78
2022/07/27 01:26:09;;;;;;;2.27;2.00;;;;;;;21.24;54.56;98828.50;5094102;28;43094;-80
2022/07/27 01:28:37;;;;;;;2.00;1.90;;;;;;;21.20;54.34;98822.59;5094332;28;41018;-81
2022/07/27 01:31:05;;;;;;;2.00;1.80;;;;;;;21.19;54.32;98820.91;5093844;28;41579;-79
2022/07/27 01:33:33;;;;;;;1.93;1.83;;;;;;;21.14;54.92;98813.28;5095566;28;42474;-79
2022/07/27 01:36:00;;;;;;;1.83;1.73;;;;;;;21.14;54.88;98809.75;5094607;28;43165;-79
2022/07/27 01:38:28;;;;;;;2.03;1.87;;;;;;;20.99;54.16;98788.00;5093884;28;39633;-79
2022/07/27 01:40:58;;;;;;;1.80;1.70;;;;;;;21.09;55.01;98810.25;5093749;28;41890;-80
2022/07/27 01:43:26;;;;;;;2.17;1.93;;;;;;;21.04;54.99;98809.88;5093800;28;41782;-79
2022/07/27 01:45:54;;;;;;;1.70;1.60;;;;;;;21.03;55.10;98810.03;5076706;28;42172;-79
2022/07/27 01:48:22;;;;;;;1.60;1.50;;;;;;;21.03;54.69;98812.72;5093615;28;38593;-79
2022/07/27 01:50:51;;;;;;;1.50;1.43;;;;;;;21.01;54.81;98812.91;5076732;28;41523;-78
2022/07/27 01:53:19;;;;;;;2.00;1.80;;;;;;;21.00;55.07;98805.84;5093625;28;42805;-79
2022/07/27 01:55:47;;;;;;;2.00;1.80;;;;;;;21.12;55.07;98819.84;5076339;28;41124;-77
2022/07/27 01:58:17;;;;;;;1.50;1.40;;;;;;;21.15;54.81;98825.72;5093655;28;40161;-80
2022/07/27 02:00:45;;;;;;;1.67;1.57;;;;;;;21.16;55.52;98816.66;5076120;28;42028;-80
2022/07/27 02:03:13;;;;;;;2.17;2.07;;;;;;;21.19;55.08;98820.06;5093440;28;41645;-79
2022/07/27 02:05:41;;;;;;;1.87;1.77;;;;;;;21.23;55.13;98818.72;5092925;28;41937;-80
2022/07/27 02:08:09;;;;;;;3.20;2.20;;;;;;;21.26;55.07;98815.72;5075903;28;38451;-80
2022/07/27 02:12:34;;;;;;;2.03;1.57;;;;;;;21.27;54.96;98810.13;5092353;28;42437;-80
2022/07/27 02:13:26;;;;;;;1.80;1.70;;;;;;;21.28;54.87;98813.69;5091377;28;43932;-80
2022/07/27 02:15:55;;;;;;;2.17;1.60;;;;;;;21.29;55.15;98813.50;5093246;28;43313;-80
2022/07/27 02:18:23;;;;;;;3.67;1.63;;;;;;;21.33;54.92;98816.72;5076278;28;39139;-78
2022/07/27 02:20:51;;;;;;;2.50;1.60;;;;;;;21.32;55.08;98804.25;5075849;28;41901;-80
2022/07/27 02:23:19;;;;;;;1.70;1.60;;;;;;;21.31;55.07;98806.13;5093118;28;45140;-80
2022/07/27 02:25:46;;;;;;;1.80;1.70;;;;;;;21.32;55.38;98807.81;5093817;28;42262;-80
2022/07/27 02:28:14;;;;;;;1.67;1.57;;;;;;;21.29;55.37;98800.03;5094392;28;41892;-77
2022/07/27 02:30:43;;;;;;;4.00;1.57;;;;;;;21.28;55.85;98802.91;5092809;28;41468;-79
2022/07/27 02:33:11;;;;;;;1.60;1.50;;;;;;;21.29;56.23;98809.97;5094038;28;43049;-78
2022/07/27 02:35:39;;;;;;;1.80;1.70;;;;;;;21.17;55.65;98807.56;5092875;28;42348;-80
2022/07/27 02:38:07;;;;;;;1.60;1.50;;;;;;;21.25;56.27;98824.81;5076137;28;39179;-80
2022/07/27 02:40:34;;;;;;;1.60;1.50;;;;;;;21.03;57.50;98824.34;5092794;28;42751;-80
2022/07/27 02:43:02;;;;;;;1.97;1.87;;;;;;;20.78;59.74;98811.78;5092910;28;42791;-81
2022/07/27 02:45:30;;;;;;;1.87;1.60;;;;;;;20.55;61.83;98821.44;5094160;28;42055;-81
2022/07/27 02:47:59;;;;;;;2.10;2.00;;;;;;;20.36;63.62;98815.28;5075890;28;39989;-78
2022/07/27 02:50:27;;;;;;;1.87;1.70;;;;;;;20.19;64.39;98820.66;5075401;28;42696;-80
2022/07/27 02:52:55;;;;;;;1.83;1.73;;;;;;;20.02;65.05;98817.03;5094425;28;43865;-80
2022/07/27 02:55:23;;;;;;;2.20;2.10;;;;;;;19.92;65.78;98818.94;5092662;28;41107;-79
2022/07/27 02:57:50;;;;;;;2.17;1.97;;;;;;;19.84;67.13;98800.09;5093020;28;39732;-81
2022/07/27 03:00:19;;;;;;;1.90;1.80;;;;;;;19.71;68.44;98795.94;5075206;28;41615;-84
2022/07/27 03:02:48;;;;;;;2.67;2.10;;;;;;;19.54;69.68;98798.63;5075702;28;41730;-87
2022/07/27 03:05:18;;;;;;;2.30;2.10;;;;;;;19.43;69.38;98802.38;5093474;28;42055;-79
2022/07/27 03:07:46;;;;;;;2.37;2.17;;;;;;;19.40;69.83;98812.59;5092939;28;38876;-82
2022/07/27 03:10:14;;;;;;;2.50;2.30;;;;;;;19.35;71.06;98804.97;5075098;28;42405;-79
2022/07/27 03:12:44;;;;;;;2.40;2.30;;;;;;;19.27;70.95;98821.88;5093853;28;43704;-83
2022/07/27 03:15:12;;;;;;;2.27;2.07;;;;;;;19.24;70.60;98818.63;5091412;28;40901;-81
2022/07/27 03:17:40;;;;;;;3.27;2.63;;;;;;;19.24;70.64;98832.06;5075377;28;41651;-81
2022/07/27 03:20:09;;;;;;;2.50;2.30;;;;;;;19.22;71.03;98816.09;5093563;28;42753;-81
2022/07/27 03:22:39;;;;;;;3.17;2.47;;;;;;;19.22;71.32;98816.09;5075404;28;42899;-78
2022/07/27 03:25:08;;;;;;;2.10;1.90;;;;;;;19.19;70.55;98816.38;5093211;28;43168;-84
2022/07/27 03:27:35;;;;;;;2.27;2.07;;;;;;;19.19;71.19;98818.22;5092368;28;39984;-82
2022/07/27 03:30:04;;;;;;;2.00;1.90;;;;;;;19.16;70.90;98816.72;5092210;28;43016;-84
2022/07/27 03:32:32;;;;;;;2.20;2.10;;;;;;;19.11;71.54;98812.78;5093419;28;42918;-78
2022/07/27 03:35:00;;;;;;;2.70;2.50;;;;;;;19.08;71.53;98813.06;5092011;28;41301;-79
2022/07/27 03:37:27;;;;;;;4.27;2.30;;;;;;;19.05;71.17;98816.03;5092494;28;40652;-82
2022/07/27 03:39:57;;;;;;;2.37;2.17;;;;;;;19.04;71.42;98822.44;5074996;28;40623;-82
2022/07/27 03:42:24;;;;;;;2.00;1.90;;;;;;;19.03;71.80;98821.59;5075073;28;44511;-81
2022/07/27 03:44:52;;;;;;;2.20;2.10;;;;;;;19.04;71.85;98822.44;5075190;28;42508;-81
2022/07/27 03:47:20;;;;;;;2.97;2.60;;;;;;;19.01;71.26;98811.00;5075199;28;39153;-78
2022/07/27 03:49:48;;;;;;;4.00;2.43;;;;;;;19.05;72.12;98813.38;5075324;28;41679;-84
2022/07/27 03:52:16;;;;;;;1.90;1.80;;;;;;;19.01;72.06;98796.72;5074818;28;42953;-78
2022/07/27 03:54:44;;;;;;;2.10;1.90;;;;;;;19.07;72.47;98806.00;5091706;28;43170;-84
2022/07/27 03:57:13;;;;;;;1.80;1.70;;;;;;;19.08;71.92;98799.66;5075096;28;39727;-82
2022/07/27 03:59:41;;;;;;;2.10;1.93;;;;;;;19.00;71.97;98795.88;5092169;28;43043;-77
2022/07/27 04:02:09;;;;;;;2.00;1.90;;;;;;;19.05;71.71;98808.00;5091881;28;44233;-78
2022/07/27 04:04:36;;;;;;;3.10;2.20;;;;;;;18.98;71.96;98797.88;5074724;28;41423;-83
2022/07/27 04:07:04;;;;;;;2.40;2.27;;;;;;;19.01;73.02;98802.94;5092636;28;40963;-80
2022/07/27 04:09:33;;;;;;;4.27;2.33;;;;;;;19.00;72.11;98806.63;5092860;28;42678;-78
2022/07/27 04:12:01;;;;;;;2.23;1.80;;;;;;;18.95;72.06;98814.28;5074709;28;42782;-81
2022/07/27 04:14:30;;;;;;;1.73;1.63;;;;;;;18.89;72.35;98809.50;5092018;28;41335;-81
2022/07/27 04:16:58;;;;;;;2.10;2.00;;;;;;;18.95;72.38;98819.63;5092789;28;39962;-82
2022/07/27 04:19:26;;;;;;;2.53;1.97;;;;;;;18.95;71.80;98822.31;5091495;28;41789;-79
2022/07/27 04:21:53;;;;;;;2.07;1.90;;;;;;;18.93;71.27;98835.03;5091497;28;41900;-81
2022/07/27 04:24:21;;;;;;;1.60;1.50;;;;;;;18.81;71.06;98812.06;5074382;28;42359;-85
2022/07/27 04:26:49;;;;;;;1.50;1.40;;;;;;;18.92;71.54;98840.56;5073350;28;41146;-82
2022/07/27 04:29:17;;;;;;;1.70;1.60;;;;;;;18.90;71.02;98832.69;5092129;28;41504;-82
2022/07/27 04:31:47;;;;;;;1.87;1.47;;;;;;;18.90;70.60;98838.03;5091547;28;43741;-83
2022/07/27 04:34:15;;;;;;;2.27;1.50;;;;;;;18.92;71.18;98832.50;5091326;28;43020;-80
2022/07/27 04:36:42;;;;;;;1.50;1.40;;;;;;;18.93;70.47;98832.34;5074679;28;40149;-82
2022/07/27 04:39:11;;;;;;;1.13;1.03;;;;;;;18.96;70.32;98841.94;5092179;28;42726;-85
2022/07/27 04:41:39;;;;;;;1.87;1.63;;;;;;;18.85;70.42;98829.59;5073642;28;42027;-77
2022/07/27 04:44:07;;;;;;;1.17;1.17;;;;;;;19.01;70.15;98850.41;5090767;28;43003;-81
2022/07/27 04:46:35;;;;;;;1.83;1.50;;;;;;;18.86;70.36;98817.00;5074483;28;39334;-83
2022/07/27 04:49:05;;;;;;;1.13;1.13;;;;;;;19.09;70.38;98857.72;5074169;28;40667;-83
2022/07/27 04:51:34;;;;;;;1.57;1.43;;;;;;;19.14;70.39;98858.13;5074487;28;42124;-80
2022/07/27 04:54:02;;;;;;;1.53;1.43;;;;;;;19.20;70.01;98865.56;5090467;28;41532;-82
2022/07/27 04:56:29;;;;;;;1.60;1.50;;;;;;;19.23;70.12;98854.53;5074227;28;40602;-80
2022/07/27 04:58:57;;;;;;;1.63;1.00;;;;;;;19.33;69.98;98871.41;5090648;28;41790;-79
2022/07/27 05:01:25;;;;;;;1.60;1.23;;;;;;;19.33;69.77;98850.78;5074304;28;42359;-83
2022/07/27 05:03:54;;;;;;;1.47;1.27;;;;;;;19.52;69.76;98863.28;5073766;28;42246;-81
2022/07/27 05:06:23;;;;;;;1.30;1.20;;;;;;;19.61;68.99;98865.06;5091157;28;39686;-82
2022/07/27 05:08:51;;;;;;;1.20;1.10;;;;;;;19.70;68.86;98868.66;5090514;28;42386;-81
2022/07/27 05:11:19;;;;;;;1.73;1.30;;;;;;;19.68;68.48;98854.53;5091040;28;43778;-81
2022/07/27 05:13:46;;;;;;;1.30;1.20;;;;;;;19.83;68.91;98879.84;5090712;28;41187;-80
2022/07/27 05:16:14;;;;;;;1.57;1.10;;;;;;;19.89;68.44;98881.09;5092218;28;39972;-81
2022/07/27 05:18:48;;;;;;;1.20;1.10;;;;;;;19.93;68.35;98885.16;5090259;28;41684;-78
2022/07/27 05:21:16;;;;;;;1.57;1.10;;;;;;;19.91;68.04;98865.63;5073974;28;41261;-81
2022/07/27 05:23:46;;;;;;;0.87;0.87;;;;;;;19.85;67.88;98850.16;5091429;28;43372;-80
2022/07/27 05:26:13;;;;;;;1.90;1.20;;;;;;;20.16;67.61;98886.34;5073989;28;40064;-79
2022/07/27 05:28:41;;;;;;;1.00;1.00;;;;;;;20.26;67.42;98891.66;5073534;28;41963;-79
2022/07/27 05:31:09;;;;;;;1.20;1.10;;;;;;;19.93;67.37;98836.78;5073971;28;42853;-81
2022/07/27 05:33:37;;;;;;;1.13;1.03;;;;;;;20.34;66.88;98906.00;5073275;28;41024;-80
2022/07/27 05:36:05;;;;;;;2.30;0.97;;;;;;;20.36;66.47;98895.13;5073575;28;40293;-79
2022/07/27 05:38:37;;;;;;;0.80;0.80;;;;;;;20.49;66.46;98911.72;5092782;28;41898;-81
2022/07/27 05:41:07;;;;;;;1.17;1.00;;;;;;;20.51;65.75;98917.78;5092419;28;43677;-82
2022/07/27 05:43:35;;;;;;;1.47;1.30;;;;;;;20.48;65.35;98907.34;5093505;28;44406;-79
2022/07/27 05:46:03;;;;;;;1.00;1.00;;;;;;;20.41;65.57;98901.72;5093810;28;41175;-79
2022/07/27 05:48:31;;;;;;;1.27;1.10;;;;;;;20.56;65.65;98915.44;5093779;28;41829;-81
2022/07/27 05:50:59;;;;;;;0.93;0.80;;;;;;;20.56;65.19;98915.44;5093870;28;43525;-78
2022/07/27 05:53:27;;;;;;;1.00;0.90;;;;;;;20.64;64.91;98922.75;5085681;28;44485;-73
2022/07/27 05:55:55;;;;;;;1.17;1.00;;;;;;;20.68;65.11;98914.19;5093122;28;40860;-73
2022/07/27 05:58:24;;;;;;;0.90;0.90;;;;;;;20.75;64.77;98917.09;5092867;28;41713;-76
2022/07/27 06:00:51;;;;;;;1.43;1.07;;;;;;;20.81;64.10;98919.16;5093832;28;42710;-72
2022/07/27 06:03:19;;;;;;;1.20;1.10;;;;;;;20.88;64.16;98928.28;5091915;28;43264;-74
2022/07/27 06:05:47;;;;;;;1.10;1.00;;;;;;;20.90;64.07;98923.56;5093668;28;39914;-73
2022/07/27 06:08:13;;;;;;;2.47;1.13;;;;;;;20.91;64.21;98927.94;5092256;28;42800;-73
2022/07/27 06:10:41;;;;;;;0.97;0.87;;;;;;;20.90;63.82;98938.88;5092948;28;42800;-77
2022/07/27 06:13:12;;;;;;;1.10;1.10;;;;;;;20.84;63.91;98939.53;5093351;28;42254;-74
2022/07/27 06:15:41;;;;;;;1.40;1.30;;;;;;;20.77;63.83;98928.56;5123800;27;40854;-77
2022/07/27 06:18:16;;;;;;;0.80;0.80;;;;;;;20.66;63.81;98926.94;5092619;28;42713;-80
2022/07/27 06:20:45;;;;;;;1.03;0.87;;;;;;;20.68;63.36;98935.72;5091394;28;42919;-79
2022/07/27 06:23:13;;;;;;;1.23;1.10;;;;;;;20.67;63.86;98943.94;5118313;27;42949;-78
2022/07/27 06:25:41;;;;;;;3.03;1.20;;;;;;;20.65;63.39;98943.25;5072965;28;39966;-79
2022/07/27 06:28:09;;;;;;;1.70;0.90;;;;;;;20.66;63.40;98932.34;5080523;28;41882;-77
2022/07/27 06:30:36;;;;;;;1.53;1.43;;;;;;;20.71;63.51;98942.63;5075757;28;42796;-74
2022/07/27 06:33:05;;;;;;;2.10;1.27;;;;;;;20.92;63.78;98943.09;5092565;28;43297;-75
2022/07/27 06:35:33;;;;;;;1.10;1.00;;;;;;;21.26;62.79;98945.03;5075397;28;39997;-76
2022/07/27 06:38:01;;;;;;;1.10;1.10;;;;;;;21.59;62.01;98941.44;5091506;28;41743;-78
2022/07/27 06:40:30;;;;;;;1.47;1.00;;;;;;;21.81;61.12;98942.66;5126791;27;43581;-76
2022/07/27 06:42:58;;;;;;;1.00;1.00;;;;;;;21.99;60.61;98947.97;5074842;28;41713;-78
2022/07/27 06:45:27;;;;;;;1.60;0.90;;;;;;;22.23;59.49;98956.09;5092521;28;40945;-78
2022/07/27 06:47:55;;;;;;;1.10;1.00;;;;;;;22.37;59.09;98954.59;5071367;28;40777;-76
2022/07/27 06:50:24;;;;;;;4.27;2.03;;;;;;;22.52;58.59;98945.63;5070813;28;43666;-75
2022/07/27 06:52:53;;;;;;;3.83;2.13;;;;;;;22.75;57.70;98961.16;5076144;28;41399;-75
2022/07/27 06:55:21;;;;;;;2.50;1.60;;;;;;;22.84;56.81;98965.56;5126226;27;39992;-74
2022/07/27 06:57:48;;;;;;;3.33;1.37;;;;;;;23.01;55.66;98961.78;5073581;28;40674;-74
2022/07/27 07:00:16;;;;;;;2.00;0.80;;;;;;;23.21;55.16;98971.22;5092935;28;43323;-76
2022/07/27 07:02:52;;;;;;;2.17;0.87;;;;;;;23.31;54.45;98951.25;5092312;28;43307;-77
2022/07/27 07:05:20;;;;;;;1.20;1.10;;;;;;;23.49;53.38;98976.19;5092119;28;39025;-75
2022/07/27 07:07:49;;;;;;;2.50;1.10;;;;;;;23.72;52.58;98974.44;5092215;28;41876;-77
2022/07/27 07:10:17;;;;;;;1.63;0.80;;;;;;;23.94;52.26;98981.75;5092555;28;42711;-76
2022/07/27 07:12:45;;;;;;;0.90;0.90;;;;;;;24.17;51.46;98983.63;5090797;28;42941;-76
2022/07/27 07:15:13;;;;;;;1.03;0.80;;;;;;;24.51;51.32;98989.50;5091467;28;40013;-72
2022/07/27 07:17:41;;;;;;;1.33;0.80;;;;;;;25.02;50.73;98997.88;5124819;27;41740;-74
2022/07/27 07:20:10;;;;;;;0.70;0.67;;;;;;;25.50;48.71;99011.94;5091296;28;42576;-73
2022/07/27 07:22:37;;;;;;;1.67;0.87;;;;;;;25.65;48.62;98999.25;5091470;28;43297;-75
2022/07/27 07:25:08;;;;;;;0.80;0.80;;;;;;;25.93;47.00;99013.81;5092232;28;40647;-74
2022/07/27 07:27:35;;;;;;;1.10;0.63;;;;;;;26.01;47.30;99021.84;5090600;28;41767;-76
2022/07/27 07:30:04;;;;;;;1.60;0.97;;;;;;;25.90;46.41;99025.03;5074265;28;42916;-74
2022/07/27 07:32:32;;;;;;;1.13;1.00;;;;;;;25.91;47.15;99025.88;5091698;28;42325;-76
2022/07/27 07:34:59;;;;;;;0.70;0.70;;;;;;;26.10;47.14;99026.09;5091131;28;39776;-74
2022/07/27 07:37:27;;;;;;;2.03;0.90;;;;;;;26.42;46.51;99029.44;5096720;28;41803;-76
2022/07/27 07:39:55;;;;;;;1.80;0.67;;;;;;;26.74;46.02;99017.19;5094443;28;44024;-73
2022/07/27 07:42:24;;;;;;;1.50;1.00;;;;;;;26.53;45.30;99015.34;5074888;28;41155;-74
2022/07/27 07:44:52;;;;;;;1.73;1.00;;;;;;;26.30;45.88;99020.97;5091747;28;41095;-73
2022/07/27 07:47:20;;;;;;;1.67;1.10;;;;;;;26.10;46.25;99009.81;5090362;28;42686;-74
2022/07/27 07:49:48;;;;;;;0.80;0.80;;;;;;;25.97;46.51;99019.69;5074806;28;42741;-74
2022/07/27 07:52:16;;;;;;;1.97;1.10;;;;;;;25.95;46.41;99010.91;5091807;28;42350;-73
2022/07/27 07:54:46;;;;;;;1.67;1.10;;;;;;;26.21;46.27;99015.81;5091976;28;39586;-73
2022/07/27 07:57:14;;;;;;;1.27;1.17;;;;;;;26.51;45.36;99017.41;5089709;28;41766;-72
2022/07/27 07:59:42;;;;;;;1.13;0.80;;;;;;;26.47;44.95;99016.09;5124563;27;42895;-71
2022/07/27 08:02:10;;;;;;;1.60;0.80;;;;;;;26.67;45.50;99006.28;5091905;28;43080;-76
2022/07/27 08:04:38;;;;;;;1.13;0.93;;;;;;;26.77;45.12;99009.50;5090050;28;40022;-76
2022/07/27 08:07:06;;;;;;;1.60;1.50;;;;;;;26.51;44.60;99019.28;5090265;28;42481;-76
2022/07/27 08:09:33;;;;;;;1.73;1.37;;;;;;;26.28;45.44;99014.03;5089366;28;41659;-76
2022/07/27 08:12:01;;;;;;;2.03;1.30;;;;;;;26.55;45.05;99007.84;5089903;28;41258;-71
2022/07/27 08:14:29;;;;;;;1.43;1.10;;;;;;;27.34;44.12;99030.25;5072783;28;39848;-71
2022/07/27 08:16:59;;;;;;;2.13;1.20;;;;;;;28.15;43.01;99034.06;5089921;28;40954;-78
2022/07/27 08:19:27;;;;;;;1.53;1.20;;;;;;;28.89;41.13;99044.16;5089752;28;41827;-72
2022/07/27 08:21:54;;;;;;;2.60;1.20;;;;;;;29.36;39.74;99054.00;5091431;28;43277;-73
2022/07/27 08:24:22;;;;;;;1.20;1.10;;;;;;;29.42;39.44;99058.66;5090961;28;39648;-75
2022/07/27 08:26:50;;;;;;;1.20;1.07;;;;;;;29.91;39.42;99051.81;5090211;28;42115;-75
2022/07/27 08:29:17;;;;;;;1.77;1.17;;;;;;;30.45;38.19;99058.72;5090602;28;43779;-75
2022/07/27 08:31:47;;;;;;;1.77;1.20;;;;;;;30.87;37.23;99063.56;5090364;28;42075;-74
2022/07/27 08:34:16;;;;;;;1.97;1.77;;;;;;;30.75;36.67;99059.00;5106467;28;38783;-73
2022/07/27 08:36:44;;;;;;;1.87;1.30;;;;;;;30.45;37.60;99058.72;5089844;28;41712;-75
2022/07/27 08:39:11;;;;;;;2.33;1.20;;;;;;;29.88;37.68;99047.59;5089991;28;41203;-74
2022/07/27 08:41:41;;;;;;;2.83;2.30;;;;;;;29.93;38.17;99045.06;5069840;28;41762;-76
2022/07/27 08:44:12;;;;;;;2.13;1.20;;;;;;;29.97;37.84;99050.97;5086197;28;42049;-75
2022/07/27 08:46:44;;;;;;;1.23;1.00;;;;;;;30.62;37.61;99055.31;5090308;28;41092;-75
2022/07/27 08:49:13;;;;;;;2.60;1.30;;;;;;;30.65;37.20;99054.03;5090415;28;43225;-74
2022/07/27 08:51:43;;;;;;;1.10;1.10;;;;;;;32.44;34.74;99071.28;5072816;28;42284;-74
2022/07/27 08:54:11;;;;;;;1.23;1.13;;;;;;;34.39;31.22;99087.63;5090834;28;40655;-74
2022/07/27 08:56:39;;;;;;;1.60;1.17;;;;;;;35.98;29.55;99096.47;5091169;28;41750;-74
2022/07/27 08:59:07;;;;;;;1.23;1.10;;;;;;;36.99;28.39;99088.59;5090303;28;43089;-77
2022/07/27 09:01:36;;;;;;;1.03;1.03;;;;;;;36.90;27.80;99100.38;5089796;28;43289;-78
2022/07/27 09:04:04;;;;;;;1.00;1.00;;;;;;;36.40;28.45;99095.94;5072572;28;39836;-78
2022/07/27 09:06:44;;;;;;;2.07;1.30;;;;;;;35.98;29.20;99079.91;5090281;28;41906;-82
2022/07/27 09:09:13;;;;;;;1.13;0.90;;;;;;;36.10;28.68;99090.03;5072205;28;43197;-78
2022/07/27 09:11:41;;;;;;;1.20;1.10;;;;;;;35.62;28.32;99080.47;5090275;28;41286;-78
2022/07/27 09:14:11;;;;;;;2.30;1.30;;;;;;;34.95;29.29;99069.47;5092850;28;39960;-78
2022/07/27 09:16:39;;;;;;;2.23;1.30;;;;;;;34.50;29.56;99072.97;5093799;28;41857;-74
2022/07/27 09:19:08;;;;;;;1.47;1.30;;;;;;;34.21;29.93;99071.28;5093621;28;43523;-76
2022/07/27 09:21:37;;;;;;;1.47;1.30;;;;;;;34.05;30.64;99069.28;5094617;28;42406;-73
2022/07/27 09:24:12;;;;;;;1.10;1.00;;;;;;;33.93;30.92;99063.81;5093731;28;40668;-74
2022/07/27 09:26:41;;;;;;;2.60;1.30;;;;;;;34.07;29.96;99076.22;5075783;28;40885;-74
2022/07/27 09:29:11;;;;;;;2.10;1.20;;;;;;;34.17;29.92;99075.59;5093536;28;43006;-76
2022/07/27 09:31:42;;;;;;;1.27;1.10;;;;;;;34.10;30.52;99066.66;5094715;28;41892;-76
2022/07/27 09:34:10;;;;;;;1.53;1.43;;;;;;;33.91;29.81;99037.63;5075718;28;38906;-73
2022/07/27 09:36:52;;;;;;;1.20;1.10;;;;;;;33.89;30.16;99068.94;5094012;28;41573;-72
2022/07/27 09:39:22;;;;;;;1.73;1.03;;;;;;;33.65;30.12;99067.25;5126548;27;43537;-76
2022/07/27 09:41:53;;;;;;;1.10;1.00;;;;;;;33.54;29.19;99076.34;5091187;28;42207;-77
2022/07/27 09:44:33;;;;;;;1.47;1.37;;;;;;;33.90;28.95;99069.78;5092473;28;40685;-76
2022/07/27 09:47:01;;;;;;;1.00;1.00;;;;;;;34.68;28.32;99076.63;5089481;28;41636;-76
2022/07/27 09:49:30;;;;;;;2.47;1.13;;;;;;;34.94;28.58;99073.28;5092100;28;42782;-75
2022/07/27 09:51:59;;;;;;;1.63;1.10;;;;;;;34.54;28.26;99082.41;5126398;27;42570;-75
2022/07/27 09:54:43;;;;;;;1.00;0.90;;;;;;;33.56;29.90;99060.47;5092178;28;40837;-77
2022/07/27 09:57:11;;;;;;;1.40;0.90;;;;;;;32.59;30.55;99009.69;5093652;28;41889;-76
2022/07/27 09:59:39;;;;;;;1.57;1.10;;;;;;;32.22;31.66;99050.91;5091957;28;43813;-74
2022/07/27 10:02:07;;;;;;;1.53;1.10;;;;;;;32.29;31.82;99046.16;5093594;28;43314;-73
2022/07/27 10:04:34;;;;;;;2.30;1.10;;;;;;;33.00;31.08;99048.13;5075556;28;38886;-77
2022/07/27 10:07:02;;;;;;;1.83;1.13;;;;;;;33.29;30.01;99056.50;5092179;28;42676;-79
2022/07/27 10:09:32;;;;;;;1.20;1.10;;;;;;;33.16;29.59;99057.53;5092847;28;43972;-80
2022/07/27 10:12:03;;;;;;;1.07;1.07;;;;;;;33.43;29.81;99057.97;5093010;28;41085;-80
2022/07/27 10:14:32;;;;;;;1.20;1.20;;;;;;;34.05;29.40;99047.28;5074895;28;40278;-75
2022/07/27 10:17:00;;;;;;;1.27;1.10;;;;;;;34.77;28.47;99065.00;5092982;28;41998;-74
2022/07/27 10:19:34;;;;;;;2.47;0.90;;;;;;;35.46;27.65;99059.31;5092937;28;42804;-77
2022/07/27 10:22:02;;;;;;;1.37;1.00;;;;;;;36.44;26.30;99069.50;5092289;28;41540;-76
2022/07/27 10:24:35;;;;;;;0.98;0.88;;;;;;;37.54;24.22;99079.16;5090677;28;40929;-74
2022/07/27 10:27:19;;;;;;;0.90;0.90;;;;;;;38.57;23.30;99086.94;5088790;28;41785;-80
2022/07/27 10:29:48;;;;;;;1.50;1.08;;;;;;;39.04;22.82;99086.78;5070056;28;43534;-77
2022/07/27 10:32:24;;;;;;;2.17;1.20;;;;;;;39.77;22.11;99095.63;5073093;28;42047;-79
2022/07/27 10:34:52;;;;;;;0.73;0.73;;;;;;;39.63;22.20;99097.31;5089241;28;40323;-77
2022/07/27 10:37:25;;;;;;;0.98;0.98;;;;;;;39.07;21.66;99106.44;5091445;28;43551;-76
2022/07/27 10:40:33;;;;;;;1.77;1.45;;;;;;;38.51;22.65;99099.91;5090258;28;43511;-76
2022/07/27 10:42:44;;;;;;;3.23;1.30;;;;;;;37.97;22.16;99102.94;5090935;28;40825;-74
2022/07/27 10:45:13;;;;;;;1.50;1.00;;;;;;;37.53;22.93;99084.94;5092078;28;40554;-74
2022/07/27 10:47:43;;;;;;;1.40;1.00;;;;;;;37.01;23.30;99088.34;5091107;28;42715;-75
2022/07/27 10:50:28;;;;;;;1.87;1.17;;;;;;;36.54;24.13;99086.19;5091992;28;43304;-77
2022/07/27 10:52:59;;;;;;;1.87;1.40;;;;;;;36.03;24.48;99081.94;5090781;28;42945;-77
2022/07/27 10:55:52;;;;;;;2.23;1.43;;;;;;;35.58;24.86;99082.09;5075275;28;38712;-77
2022/07/27 10:58:51;;;;;;;1.40;1.10;;;;;;;35.55;25.50;99071.56;5087774;28;41052;-75
2022/07/27 11:01:21;;;;;;;1.40;1.00;;;;;;;35.53;24.96;99073.72;5092302;28;43363;-79
2022/07/27 11:03:54;;;;;;;1.17;1.07;;;;;;;35.36;25.18;99081.19;5091230;28;41156;-74
2022/07/27 11:06:31;;;;;;;1.20;1.10;;;;;;;34.94;25.72;99067.78;5122468;27;40523;-75
2022/07/27 11:09:01;;;;;;;3.17;1.60;;;;;;;35.33;26.24;99073.44;5073413;28;40635;-78
2022/07/27 11:11:33;;;;;;;1.17;1.10;;;;;;;36.00;24.88;99075.00;5091720;28;41866;-79
2022/07/27 11:14:01;;;;;;;1.17;0.90;;;;;;;36.66;24.08;99048.22;5093533;28;43897;-77
2022/07/27 11:16:30;;;;;;;1.17;1.07;;;;;;;36.08;24.24;99067.38;5105989;28;39704;-77
2022/07/27 11:19:04;;;;;;;1.27;1.00;;;;;;;35.19;25.20;99068.22;5087661;28;41762;-80
2022/07/27 11:21:34;;;;;;;1.80;1.37;;;;;;;34.33;26.51;99058.34;5071997;28;42824;-79
2022/07/27 11:24:09;;;;;;;2.10;1.40;;;;;;;33.61;27.53;99052.34;5085610;28;42096;-81
2022/07/27 11:26:40;;;;;;;1.90;1.30;;;;;;;33.07;27.88;99059.81;5090163;28;40745;-81
2022/07/27 11:29:10;;;;;;;3.13;1.30;;;;;;;32.65;28.54;99042.47;5091292;28;42700;-80
2022/07/27 11:31:39;;;;;;;1.40;1.30;;;;;;;32.23;29.00;99044.38;5074681;28;43847;-77
2022/07/27 11:34:07;;;;;;;1.40;1.30;;;;;;;31.99;29.63;99037.88;5073471;28;42340;-80
2022/07/27 11:36:37;;;;;;;1.40;1.23;;;;;;;31.91;29.94;99029.13;5090492;28;41061;-76
2022/07/27 11:39:07;;;;;;;1.60;1.23;;;;;;;31.84;30.03;99036.59;5090206;28;42197;-73
2022/07/27 11:41:36;;;;;;;2.77;1.00;;;;;;;31.83;29.80;99040.41;5074507;28;41683;-75
2022/07/27 11:44:07;;;;;;;1.33;1.00;;;;;;;31.86;29.55;99037.22;5090395;28;43016;-73